Time;durP1;ratioP1;P1;durP2;ratioP2;P2;SDS_P1;SDS_P2;PMS_P1;PMS_P2;Temp;Humidity;BMP_temperature;BMP_pressure;BME280_temperature;BME280_humidity;BME280_pressure;Samples;Min_cycle;Max_cycle;Signal;HPM_P1;HPM_P2
2023/12/25 00:02:19;;;;;;;5.65;1.02;;;26.70;96.10;;;;;;5055745;28;20107;-76
2023/12/25 00:04:46;;;;;;;5.75;1.50;;;27.10;95.80;;;;;;5056333;28;20047;-76
2023/12/25 00:07:13;;;;;;;4.70;1.33;;;28.10;97.40;;;;;;5053014;28;20107;-77
2023/12/25 00:09:41;;;;;;;6.00;1.15;;;28.70;95.20;;;;;;5055344;28;20055;-77
2023/12/25 00:12:08;;;;;;;4.10;1.05;;;29.20;95.20;;;;;;5053995;28;20033;-77
2023/12/25 00:14:35;;;;;;;4.18;1.10;;;29.10;93.00;;;;;;5055992;28;20064;-76
2023/12/25 00:17:03;;;;;;;2.17;0.60;;;28.60;93.40;;;;;;5055109;28;20029;-75
2023/12/25 00:19:30;;;;;;;7.40;1.25;;;28.20;93.10;;;;;;5054941;28;20033;-75
2023/12/25 00:22:00;;;;;;;5.30;1.08;;;28.30;92.20;;;;;;5051425;28;20374;-75
2023/12/25 00:24:28;;;;;;;3.25;0.95;;;28.10;91.90;;;;;;5053769;28;20032;-75
2023/12/25 00:26:55;;;;;;;5.07;1.55;;;28.10;92.60;;;;;;5038729;28;20124;-75
2023/12/25 00:29:23;;;;;;;5.65;1.10;;;28.00;92.30;;;;;;5057608;28;20052;-74
2023/12/25 00:31:50;;;;;;;6.00;1.00;;;28.10;92.90;;;;;;5055965;28;20044;-74
2023/12/25 00:34:18;;;;;;;2.58;0.77;;;28.50;93.00;;;;;;5048635;28;20033;-74
2023/12/25 00:36:45;;;;;;;3.47;0.90;;;28.60;92.60;;;;;;5049349;28;20474;-74
2023/12/25 00:39:13;;;;;;;2.97;0.90;;;28.90;92.00;;;;;;5055820;28;20044;-74
2023/12/25 00:41:41;;;;;;;3.65;1.05;;;29.20;91.70;;;;;;5046729;28;20065;-74
2023/12/25 00:44:08;;;;;;;3.65;1.45;;;29.20;91.20;;;;;;5047333;28;20035;-73
2023/12/25 00:46:36;;;;;;;4.15;0.93;;;29.20;90.10;;;;;;5042214;28;20087;-74
2023/12/25 00:49:03;;;;;;;3.47;1.10;;;29.10;89.40;;;;;;5045845;28;20178;-74
2023/12/25 00:51:30;;;;;;;7.70;1.48;;;29.50;90.00;;;;;;5051202;28;20047;-75
2023/12/25 00:54:00;;;;;;;4.30;1.23;;;29.30;89.80;;;;;;5044135;28;20545;-75
2023/12/25 00:56:27;;;;;;;4.22;1.20;;;28.70;90.40;;;;;;5047981;28;20048;-75
2023/12/25 00:58:55;;;;;;;2.58;0.90;;;29.00;90.30;;;;;;5047104;28;20036;-74
2023/12/25 01:01:22;;;;;;;2.83;0.90;;;29.60;88.60;;;;;;5048235;28;20035;-74
2023/12/25 01:03:49;;;;;;;3.58;0.98;;;30.10;90.30;;;;;;5047600;28;20473;-75
2023/12/25 01:06:17;;;;;;;4.28;1.77;;;30.60;87.10;;;;;;5050489;28;20462;-75
2023/12/25 01:08:44;;;;;;;4.70;1.30;;;31.00;87.00;;;;;;5047652;28;20045;-76
2023/12/25 01:11:11;;;;;;;5.05;1.15;;;31.00;88.20;;;;;;5052192;28;20074;-75
2023/12/25 01:13:39;;;;;;;3.67;1.40;;;31.20;83.00;;;;;;5052291;28;20023;-76
2023/12/25 01:16:06;;;;;;;5.28;1.33;;;31.40;87.10;;;;;;5047133;28;20037;-75
2023/12/25 01:18:34;;;;;;;4.10;1.10;;;32.00;84.80;;;;;;5050601;28;20108;-74
2023/12/25 01:21:01;;;;;;;3.53;1.10;;;32.10;80.30;;;;;;5042001;28;20037;-75
2023/12/25 01:23:28;;;;;;;5.40;1.50;;;31.90;81.10;;;;;;5053071;28;20024;-75
2023/12/25 01:25:56;;;;;;;5.80;3.10;;;31.60;82.60;;;;;;5050965;28;20025;-75
2023/12/25 01:28:23;;;;;;;9.90;5.70;;;31.10;80.70;;;;;;5055532;28;20032;-75
2023/12/25 01:30:50;;;;;;;8.07;2.42;;;30.70;80.60;;;;;;5047557;28;20037;-75
2023/12/25 01:33:18;;;;;;;4.68;1.10;;;30.40;82.80;;;;;;5055078;28;20036;-74
2023/12/25 01:35:45;;;;;;;3.38;1.48;;;30.20;81.10;;;;;;5059006;28;20503;-75
2023/12/25 01:38:12;;;;;;;5.63;1.63;;;30.00;83.50;;;;;;5056693;28;20370;-75
2023/12/25 01:40:43;;;;;;;3.35;1.42;;;29.70;81.60;;;;;;5058598;28;20063;-75
2023/12/25 01:43:10;;;;;;;3.53;1.33;;;29.40;83.50;;;;;;5059160;28;20033;-76
2023/12/25 01:45:38;;;;;;;3.05;1.23;;;29.40;84.00;;;;;;5058886;28;20029;-74
2023/12/25 01:48:06;;;;;;;4.85;2.00;;;29.70;81.20;;;;;;5057973;28;20029;-75
2023/12/25 01:50:34;;;;;;;2.50;1.35;;;30.40;81.50;;;;;;5058910;28;20043;-74
2023/12/25 01:53:02;;;;;;;2.78;1.20;;;31.00;80.60;;;;;;5046725;28;20123;-75
2023/12/25 01:55:30;;;;;;;3.88;1.33;;;30.50;78.80;;;;;;5055142;28;20493;-75
2023/12/25 01:57:57;;;;;;;5.22;1.80;;;30.80;81.20;;;;;;5058953;28;20025;-75
2023/12/25 02:00:25;;;;;;;4.35;1.40;;;31.50;82.70;;;;;;5054125;28;20043;-75
2023/12/25 02:02:52;;;;;;;3.25;1.45;;;32.30;84.30;;;;;;5058014;28;20041;-76
2023/12/25 02:05:20;;;;;;;3.83;1.60;;;32.90;81.50;;;;;;5053456;28;20377;-76
2023/12/25 02:07:47;;;;;;;4.43;1.48;;;32.60;77.80;;;;;;5057417;28;20142;-75
2023/12/25 02:10:36;;;;;;;4.90;1.52;;;31.90;79.20;;;;;;5059372;28;20025;-75
2023/12/25 02:13:05;;;;;;;5.60;1.48;;;31.50;79.30;;;;;;5050086;28;20017;-76
2023/12/25 02:15:33;;;;;;;6.55;1.92;;;31.80;83.50;;;;;;5056885;28;20465;-76
2023/12/25 02:18:01;;;;;;;6.20;1.42;;;32.30;80.40;;;;;;5054510;28;20477;-75
2023/12/25 02:20:29;;;;;;;2.80;1.17;;;32.50;76.10;;;;;;5050253;28;20092;-75
2023/12/25 02:22:59;;;;;;;5.68;1.52;;;32.10;73.90;;;;;;5052464;28;20078;-74
2023/12/25 02:25:36;;;;;;;4.82;2.33;;;31.30;74.00;;;;;;5056895;28;20058;-75
2023/12/25 02:28:05;;;;;;;4.13;2.00;;;30.80;74.50;;;;;;5047602;28;20485;-75
2023/12/25 02:30:32;;;;;;;4.32;1.65;;;30.40;77.40;;;;;;5055412;28;20012;-76
2023/12/25 02:33:04;;;;;;;4.32;1.50;;;30.30;77.10;;;;;;5052934;28;20060;-76
2023/12/25 02:35:32;;;;;;;4.93;1.45;;;30.30;76.60;;;;;;5045031;28;20029;-77
2023/12/25 02:37:59;;;;;;;4.00;1.63;;;30.80;80.00;;;;;;5050073;28;20415;-75
2023/12/25 02:40:26;;;;;;;4.75;2.03;;;31.00;80.00;;;;;;5022831;28;20039;-76
2023/12/25 02:42:54;;;;;;;4.07;2.28;;;31.40;76.10;;;;;;5051057;28;20091;-75
2023/12/25 02:45:21;;;;;;;4.47;2.00;;;31.30;74.70;;;;;;5044922;28;20051;-75
2023/12/25 02:47:48;;;;;;;5.18;1.48;;;31.60;75.20;;;;;;5047765;28;20025;-75
2023/12/25 02:50:16;;;;;;;4.43;1.70;;;31.70;74.40;;;;;;5049336;28;20365;-76
2023/12/25 02:52:43;;;;;;;2.53;1.48;;;32.10;74.00;;;;;;5046296;28;20029;-76
2023/12/25 02:55:10;;;;;;;5.30;1.48;;;32.70;76.50;;;;;;5043747;28;20478;-75
2023/12/25 02:57:38;;;;;;;4.50;1.55;;;33.50;74.90;;;;;;5054057;28;20021;-75
2023/12/25 03:00:09;;;;;;;4.32;1.55;;;33.70;72.70;;;;;;5025555;28;20051;-73
2023/12/25 03:02:36;;;;;;;3.00;1.30;;;33.40;69.30;;;;;;5040995;28;20033;-76
2023/12/25 03:05:04;;;;;;;6.05;1.88;;;33.10;67.90;;;;;;5050238;28;20060;-76
2023/12/25 03:07:31;;;;;;;4.05;2.05;;;32.80;70.90;;;;;;5055341;28;20492;-77
2023/12/25 03:09:59;;;;;;;2.78;1.30;;;33.10;72.80;;;;;;5057206;28;20025;-76
2023/12/25 03:12:27;;;;;;;6.03;1.75;;;32.90;71.80;;;;;;5052558;28;20035;-76
2023/12/25 03:14:54;;;;;;;4.00;1.55;;;32.80;72.30;;;;;;5050942;28;20037;-76
2023/12/25 03:17:22;;;;;;;4.35;1.42;;;32.50;73.00;;;;;;5053311;28;20032;-75
2023/12/25 03:19:49;;;;;;;3.80;1.48;;;32.30;72.50;;;;;;5035942;28;20024;-75
2023/12/25 03:22:16;;;;;;;3.08;1.35;;;32.20;74.00;;;;;;5050299;28;20441;-76
2023/12/25 03:24:44;;;;;;;4.60;1.67;;;31.80;73.10;;;;;;5054921;28;20036;-75
2023/12/25 03:27:11;;;;;;;2.92;1.48;;;31.50;73.80;;;;;;5057559;28;20159;-76
2023/12/25 03:29:38;;;;;;;2.97;1.42;;;30.70;73.90;;;;;;5052145;28;20017;-75
2023/12/25 03:32:06;;;;;;;2.63;1.38;;;30.00;76.30;;;;;;5057651;28;20339;-77
2023/12/25 03:34:44;;;;;;;6.95;2.00;;;29.80;78.20;;;;;;5056062;28;20140;-76
2023/12/25 03:37:12;;;;;;;10.80;2.92;;;29.60;79.80;;;;;;5053829;28;20417;-76
2023/12/25 03:39:39;;;;;;;5.75;1.85;;;29.50;81.20;;;;;;5052367;28;20470;-75
2023/12/25 03:42:06;;;;;;;6.90;2.08;;;29.40;80.90;;;;;;5059962;28;20458;-75
2023/12/25 03:44:34;;;;;;;2.97;1.38;;;29.10;82.10;;;;;;5057449;28;20033;-74
2023/12/25 03:47:02;;;;;;;5.30;1.80;;;28.80;82.50;;;;;;5055869;28;20025;-75
2023/12/25 03:49:30;;;;;;;3.00;1.30;;;28.90;82.90;;;;;;5057679;28;20022;-76
2023/12/25 03:51:58;;;;;;;4.15;1.77;;;28.90;81.80;;;;;;5054765;28;20088;-75
2023/12/25 03:54:25;;;;;;;4.55;1.73;;;28.80;81.60;;;;;;5053670;28;20405;-75
2023/12/25 03:56:52;;;;;;;7.43;1.52;;;28.80;82.40;;;;;;5055283;28;20024;-73
2023/12/25 03:59:20;;;;;;;3.83;1.77;;;28.70;82.20;;;;;;5057072;28;20373;-74
2023/12/25 04:01:47;;;;;;;2.83;1.20;;;28.60;82.30;;;;;;5057870;28;20021;-74
2023/12/25 04:04:14;;;;;;;4.07;1.20;;;28.50;82.80;;;;;;5034113;28;20039;-74
2023/12/25 04:06:42;;;;;;;4.68;1.65;;;28.30;83.10;;;;;;5046962;28;20055;-74
2023/12/25 04:09:09;;;;;;;3.80;1.40;;;28.30;83.90;;;;;;5033646;28;20528;-75
2023/12/25 04:11:36;;;;;;;3.95;1.27;;;28.40;83.00;;;;;;5055751;28;20025;-74
2023/12/25 04:14:04;;;;;;;2.67;1.00;;;28.30;83.00;;;;;;5052130;28;20033;-77
2023/12/25 04:16:31;;;;;;;4.95;1.45;;;28.20;83.20;;;;;;5055560;28;20028;-74
2023/12/25 04:18:59;;;;;;;2.60;1.10;;;28.40;83.60;;;;;;5050129;28;20029;-74
2023/12/25 04:21:28;;;;;;;2.53;0.80;;;28.60;82.80;;;;;;5048432;28;20661;-73
2023/12/25 04:23:56;;;;;;;5.55;1.25;;;28.90;82.60;;;;;;5050397;28;20480;-74
2023/12/25 04:26:24;;;;;;;5.07;0.90;;;29.10;83.10;;;;;;5052901;28;20028;-74
2023/12/25 04:28:52;;;;;;;2.85;1.10;;;29.10;83.70;;;;;;5057566;28;20410;-74
2023/12/25 04:31:20;;;;;;;2.58;0.93;;;29.10;83.50;;;;;;5048092;28;20516;-74
2023/12/25 04:33:47;;;;;;;5.82;1.08;;;29.20;81.60;;;;;;5047697;28;20025;-74
2023/12/25 04:36:15;;;;;;;6.65;1.58;;;29.10;81.70;;;;;;5047312;28;20057;-73
2023/12/25 04:38:42;;;;;;;4.10;0.88;;;29.30;82.60;;;;;;5027838;28;20032;-75
2023/12/25 04:41:09;;;;;;;3.72;0.88;;;29.20;81.40;;;;;;5027531;28;20481;-73
2023/12/25 04:43:38;;;;;;;5.32;1.10;;;29.20;82.10;;;;;;5052042;28;20037;-74
2023/12/25 04:46:05;;;;;;;3.05;0.93;;;29.00;82.80;;;;;;5047044;28;20055;-74
2023/12/25 04:48:32;;;;;;;2.47;1.05;;;28.90;83.90;;;;;;5048721;28;20021;-74
2023/12/25 04:51:00;;;;;;;6.35;1.20;;;28.90;85.00;;;;;;5049939;28;20470;-74
2023/12/25 04:53:29;;;;;;;4.18;0.98;;;28.90;85.10;;;;;;5046036;28;20454;-73
2023/12/25 04:55:57;;;;;;;2.50;0.70;;;29.00;85.00;;;;;;5057383;28;20083;-74
2023/12/25 04:58:24;;;;;;;5.28;0.95;;;29.00;85.20;;;;;;5051845;28;20381;-75
2023/12/25 05:00:51;;;;;;;3.85;1.00;;;29.00;85.10;;;;;;5051760;28;20028;-73
2023/12/25 05:03:20;;;;;;;3.05;0.80;;;28.80;85.30;;;;;;5052973;28;20028;-74
2023/12/25 05:05:48;;;;;;;3.22;0.82;;;28.80;85.90;;;;;;5039606;28;20025;-74
2023/12/25 05:08:18;;;;;;;4.75;1.30;;;28.60;85.90;;;;;;5039412;28;20515;-74
2023/12/25 05:10:45;;;;;;;6.25;1.85;;;28.60;86.50;;;;;;5049231;28;20017;-74
2023/12/25 05:13:13;;;;;;;4.80;1.10;;;28.40;87.20;;;;;;5052422;28;20032;-74
2023/12/25 05:15:40;;;;;;;4.28;1.38;;;28.40;87.60;;;;;;5055136;28;20033;-74
2023/12/25 05:18:07;;;;;;;6.65;1.70;;;28.20;88.60;;;;;;5051138;28;20029;-74
2023/12/25 05:20:35;;;;;;;6.20;1.30;;;28.10;88.30;;;;;;5056320;28;20465;-74
2023/12/25 05:23:02;;;;;;;3.83;0.90;;;28.00;89.20;;;;;;5056994;28;20029;-74
2023/12/25 05:25:30;;;;;;;4.25;1.23;;;27.90;89.90;;;;;;5052874;28;20016;-74
2023/12/25 05:27:58;;;;;;;3.80;0.90;;;27.90;90.00;;;;;;5051285;28;20510;-74
2023/12/25 05:30:25;;;;;;;5.90;0.80;;;27.80;90.20;;;;;;5053329;28;20077;-74
2023/12/25 05:32:52;;;;;;;3.10;0.98;;;27.80;90.40;;;;;;5052164;28;20040;-74
2023/12/25 05:35:19;;;;;;;2.28;0.90;;;27.80;91.10;;;;;;5049978;28;20055;-73
2023/12/25 05:37:47;;;;;;;4.72;0.98;;;27.80;91.50;;;;;;5053075;28;20035;-74
2023/12/25 05:40:14;;;;;;;6.72;1.20;;;27.80;91.70;;;;;;5056937;28;20458;-74
2023/12/25 05:42:42;;;;;;;5.22;1.08;;;27.60;92.00;;;;;;5031248;28;20025;-74
2023/12/25 05:45:09;;;;;;;6.68;1.42;;;27.50;91.80;;;;;;5053605;28;20447;-75
2023/12/25 05:47:37;;;;;;;5.85;1.00;;;27.40;91.90;;;;;;5051442;28;20393;-74
2023/12/25 05:50:04;;;;;;;5.65;0.80;;;27.20;92.40;;;;;;5051511;28;20023;-73
2023/12/25 05:52:32;;;;;;;9.00;1.80;;;27.20;92.90;;;;;;5051713;28;20074;-73
2023/12/25 05:55:00;;;;;;;8.05;1.40;;;27.20;93.20;;;;;;5053010;28;20071;-74
2023/12/25 05:57:29;;;;;;;6.13;1.13;;;27.10;93.30;;;;;;5047308;28;20036;-74
2023/12/25 05:59:56;;;;;;;6.20;1.02;;;26.90;93.50;;;;;;5052363;28;20040;-73
2023/12/25 06:02:23;;;;;;;5.97;1.25;;;26.90;93.60;;;;;;5048419;28;20075;-73
2023/12/25 06:04:51;;;;;;;4.75;1.10;;;26.80;93.50;;;;;;5047545;28;20033;-73
2023/12/25 06:07:18;;;;;;;5.93;1.05;;;26.70;93.50;;;;;;5053574;28;20116;-74
2023/12/25 06:09:45;;;;;;;4.35;1.00;;;26.90;93.40;;;;;;5048370;28;20528;-73
2023/12/25 06:12:13;;;;;;;5.57;1.25;;;26.90;93.80;;;;;;5031482;28;20478;-74
2023/12/25 06:14:40;;;;;;;14.55;2.08;;;26.80;94.40;;;;;;5045832;28;20041;-74
2023/12/25 06:17:07;;;;;;;5.30;1.10;;;26.80;95.10;;;;;;5045616;28;20028;-74
2023/12/25 06:19:35;;;;;;;6.15;0.95;;;26.80;95.50;;;;;;5051620;28;20040;-74
2023/12/25 06:22:02;;;;;;;5.03;1.08;;;26.70;96.10;;;;;;5042293;28;20096;-74
2023/12/25 06:24:29;;;;;;;5.72;1.00;;;26.60;96.40;;;;;;5050811;28;20043;-73
2023/12/25 06:26:57;;;;;;;3.88;1.10;;;26.20;97.30;;;;;;5045539;28;20103;-73
2023/12/25 06:29:24;;;;;;;7.80;1.00;;;26.00;98.00;;;;;;5051484;28;20485;-73
2023/12/25 06:31:51;;;;;;;3.42;1.25;;;25.70;99.00;;;;;;5032476;28;20112;-73
2023/12/25 06:34:19;;;;;;;5.90;1.10;;;25.60;99.80;;;;;;5061229;28;20477;-73
2023/12/25 06:36:46;;;;;;;4.45;1.00;;;25.40;99.90;;;;;;5045454;28;20048;-73
2023/12/25 06:39:13;;;;;;;3.53;1.15;;;25.30;99.90;;;;;;5053440;28;20033;-74
2023/12/25 06:41:41;;;;;;;6.18;1.42;;;25.10;99.90;;;;;;5054655;28;20037;-74
2023/12/25 06:44:08;;;;;;;7.10;1.50;;;25.10;99.90;;;;;;5053179;28;20432;-74
2023/12/25 06:46:36;;;;;;;5.95;1.02;;;25.00;99.90;;;;;;5056734;28;20033;-74
2023/12/25 06:49:03;;;;;;;6.05;1.00;;;25.00;99.90;;;;;;5054674;28;20039;-73
2023/12/25 06:51:30;;;;;;;6.50;1.27;;;24.80;99.90;;;;;;5055802;28;20113;-73
2023/12/25 06:53:58;;;;;;;5.32;1.10;;;24.60;99.90;;;;;;5054080;28;20037;-73
2023/12/25 06:56:25;;;;;;;4.68;1.02;;;24.60;99.90;;;;;;5050880;28;20095;-73
2023/12/25 06:58:53;;;;;;;4.72;1.23;;;24.50;99.90;;;;;;5048707;28;20032;-73
2023/12/25 07:01:24;;;;;;;3.13;1.25;;;24.50;99.90;;;;;;5059344;28;20016;-73
2023/12/25 07:03:51;;;;;;;5.45;1.20;;;24.40;99.90;;;;;;5056050;28;20092;-73
2023/12/25 07:06:19;;;;;;;4.72;1.20;;;24.30;99.90;;;;;;5037144;28;20033;-73
2023/12/25 07:08:46;;;;;;;10.05;1.58;;;24.20;99.90;;;;;;5056707;28;20152;-73
2023/12/25 07:11:14;;;;;;;7.20;2.10;;;24.20;99.90;;;;;;5057328;28;20070;-74
2023/12/25 07:13:42;;;;;;;5.65;1.15;;;24.40;99.90;;;;;;5058500;28;20094;-74
2023/12/25 07:16:19;;;;;;;13.90;1.65;;;24.60;99.90;;;;;;5057150;28;20506;-73
2023/12/25 07:18:47;;;;;;;9.18;1.63;;;24.50;99.90;;;;;;5056325;28;20024;-74
2023/12/25 07:21:15;;;;;;;8.65;1.63;;;24.50;99.90;;;;;;5055204;28;20029;-74
2023/12/25 07:23:42;;;;;;;8.07;1.92;;;24.30;99.90;;;;;;5053372;28;20055;-74
2023/12/25 07:26:10;;;;;;;7.97;1.48;;;24.20;99.90;;;;;;5036253;28;20489;-74
2023/12/25 07:28:37;;;;;;;9.38;1.27;;;24.10;99.90;;;;;;5053345;28;20497;-74
2023/12/25 07:31:04;;;;;;;6.53;1.73;;;24.20;99.90;;;;;;5055254;28;20025;-73
2023/12/25 07:33:34;;;;;;;9.60;1.17;;;24.10;99.90;;;;;;5050126;28;20091;-74
2023/12/25 07:36:04;;;;;;;7.65;1.83;;;23.90;99.90;;;;;;5049203;28;20090;-74
2023/12/25 07:38:31;;;;;;;6.13;1.77;;;24.00;99.90;;;;;;5049618;28;20102;-74
2023/12/25 07:40:58;;;;;;;2.97;1.20;;;24.00;99.90;;;;;;5055844;28;20393;-74
2023/12/25 07:43:26;;;;;;;5.60;1.17;;;24.10;99.90;;;;;;5041701;28;20084;-73
2023/12/25 07:45:54;;;;;;;5.45;1.50;;;23.90;99.90;;;;;;5047283;28;20104;-74
2023/12/25 07:48:21;;;;;;;3.58;1.20;;;24.00;99.90;;;;;;5050684;28;20024;-75
2023/12/25 07:50:51;;;;;;;7.00;1.90;;;24.00;99.90;;;;;;5045865;28;20034;-74
2023/12/25 07:53:18;;;;;;;5.88;1.95;;;24.10;99.90;;;;;;5051473;28;20099;-73
2023/12/25 07:55:46;;;;;;;5.35;1.48;;;24.10;99.90;;;;;;5043416;28;21431;-74
2023/12/25 07:58:14;;;;;;;7.43;1.63;;;24.30;99.90;;;;;;5044616;28;20029;-73
2023/12/25 08:00:42;;;;;;;6.07;1.38;;;24.40;99.90;;;;;;5049277;28;20394;-74
2023/12/25 08:03:12;;;;;;;7.03;1.35;;;24.30;99.90;;;;;;5044274;28;20033;-74
2023/12/25 08:05:40;;;;;;;7.80;1.83;;;24.10;99.90;;;;;;5051408;28;20454;-74
2023/12/25 08:08:07;;;;;;;6.95;1.65;;;23.90;99.90;;;;;;5045930;28;20456;-74
2023/12/25 08:10:35;;;;;;;6.72;1.23;;;23.80;99.90;;;;;;5043106;28;20462;-74
2023/12/25 08:13:02;;;;;;;7.25;1.70;;;23.90;99.90;;;;;;5048838;28;20017;-74
2023/12/25 08:15:30;;;;;;;5.45;1.75;;;23.90;99.90;;;;;;5047486;28;20036;-75
2023/12/25 08:17:59;;;;;;;8.82;1.58;;;23.90;99.90;;;;;;5035858;28;20037;-75
2023/12/25 08:20:26;;;;;;;6.30;1.55;;;23.80;99.90;;;;;;5050507;28;20048;-74
2023/12/25 08:22:53;;;;;;;5.78;1.27;;;23.70;99.90;;;;;;5049920;28;20033;-74
2023/12/25 08:25:21;;;;;;;10.02;2.03;;;23.50;99.90;;;;;;5047510;28;20043;-74
2023/12/25 08:27:48;;;;;;;6.97;1.50;;;23.60;99.90;;;;;;5058185;28;20070;-74
2023/12/25 08:30:16;;;;;;;4.95;1.45;;;23.60;99.90;;;;;;5061014;28;20013;-74
2023/12/25 08:32:43;;;;;;;2.28;1.35;;;23.60;99.90;;;;;;5052296;28;20060;-74
2023/12/25 08:35:10;;;;;;;9.65;2.55;;;23.70;99.90;;;;;;5053328;28;20041;-74
2023/12/25 08:37:38;;;;;;;4.28;1.60;;;23.60;99.90;;;;;;5049814;28;20044;-74
2023/12/25 08:40:07;;;;;;;9.70;1.48;;;23.50;99.90;;;;;;5051027;28;20043;-74
2023/12/25 08:42:35;;;;;;;7.57;1.67;;;23.80;99.90;;;;;;5052569;28;20021;-74
2023/12/25 08:45:06;;;;;;;6.57;1.55;;;24.00;99.90;;;;;;5054341;28;20500;-74
2023/12/25 08:47:33;;;;;;;8.68;1.80;;;24.00;99.90;;;;;;5049865;28;20028;-74
2023/12/25 08:50:00;;;;;;;7.55;1.52;;;24.00;99.90;;;;;;5050605;28;20119;-74
2023/12/25 08:52:28;;;;;;;8.20;1.38;;;23.90;99.90;;;;;;5051733;28;20361;-75
2023/12/25 08:54:56;;;;;;;8.25;1.60;;;23.90;99.90;;;;;;5052146;28;20063;-75
2023/12/25 08:57:23;;;;;;;7.88;1.35;;;23.90;99.90;;;;;;5050926;28;20033;-74
2023/12/25 08:59:50;;;;;;;6.68;1.50;;;23.80;99.90;;;;;;5055445;28;20039;-74
2023/12/25 09:02:21;;;;;;;6.53;1.50;;;23.70;99.90;;;;;;5054822;28;20036;-75
2023/12/25 09:04:49;;;;;;;7.72;1.80;;;23.70;99.90;;;;;;5052972;28;20029;-74
2023/12/25 09:07:20;;;;;;;8.85;1.30;;;23.60;99.90;;;;;;5049917;28;20056;-74
2023/12/25 09:09:47;;;;;;;9.93;1.75;;;23.70;99.90;;;;;;5052415;28;20897;-74
2023/12/25 09:12:14;;;;;;;7.57;1.65;;;23.70;99.90;;;;;;5056565;28;20021;-76
2023/12/25 09:14:45;;;;;;;3.75;1.52;;;23.80;99.90;;;;;;5057722;28;20040;-74
2023/12/25 09:17:13;;;;;;;5.65;1.60;;;23.70;99.90;;;;;;5052543;28;20028;-75
2023/12/25 09:19:40;;;;;;;7.75;1.80;;;23.60;99.90;;;;;;5032564;28;20524;-74
2023/12/25 09:22:08;;;;;;;8.80;2.05;;;23.50;99.90;;;;;;5050624;28;20543;-74
2023/12/25 09:24:35;;;;;;;5.65;1.40;;;23.40;99.90;;;;;;5052524;28;20116;-74
2023/12/25 09:27:03;;;;;;;9.50;3.72;;;23.40;99.90;;;;;;5056110;28;20524;-75
2023/12/25 09:29:30;;;;;;;14.38;6.10;;;23.40;99.90;;;;;;5053974;28;20017;-75
2023/12/25 09:31:57;;;;;;;13.18;4.57;;;23.40;99.90;;;;;;5050535;28;20040;-75
2023/12/25 09:34:25;;;;;;;13.50;2.88;;;23.60;99.90;;;;;;5054232;28;20068;-74
2023/12/25 09:36:55;;;;;;;5.88;2.17;;;23.70;99.90;;;;;;5047177;28;20148;-76
2023/12/25 09:39:22;;;;;;;10.20;2.10;;;23.70;99.90;;;;;;5053547;28;20027;-74
2023/12/25 09:41:50;;;;;;;11.35;1.83;;;23.50;99.90;;;;;;5051404;28;20025;-75
2023/12/25 09:44:17;;;;;;;6.47;2.15;;;23.40;99.90;;;;;;5048238;28;20098;-75
2023/12/25 09:46:46;;;;;;;3.90;1.65;;;23.40;99.90;;;;;;5051216;28;20033;-74
2023/12/25 09:49:15;;;;;;;6.85;2.20;;;23.60;99.90;;;;;;5039467;28;20041;-75
2023/12/25 09:51:44;;;;;;;8.50;2.20;;;23.60;99.90;;;;;;5045918;28;20030;-74
2023/12/25 09:54:12;;;;;;;10.55;2.13;;;23.50;99.90;;;;;;5051420;28;20025;-74
2023/12/25 09:56:40;;;;;;;8.43;2.28;;;23.40;99.90;;;;;;5047881;28;20063;-75
2023/12/25 09:59:08;;;;;;;6.20;2.05;;;23.40;99.90;;;;;;5052666;28;20482;-74
2023/12/25 10:01:37;;;;;;;7.82;2.25;;;23.30;99.90;;;;;;5053885;28;20025;-75
2023/12/25 10:04:06;;;;;;;9.18;1.70;;;23.30;99.90;;;;;;5043962;28;20022;-75
2023/12/25 10:06:34;;;;;;;8.05;1.88;;;23.30;99.90;;;;;;5052535;28;20110;-75
2023/12/25 10:09:03;;;;;;;7.43;2.83;;;23.50;99.90;;;;;;5052842;28;20060;-75
2023/12/25 10:11:30;;;;;;;7.50;2.28;;;23.60;99.90;;;;;;5051644;28;20032;-75
2023/12/25 10:13:58;;;;;;;8.00;1.98;;;23.50;99.90;;;;;;5052028;28;20477;-74
2023/12/25 10:16:25;;;;;;;11.07;2.08;;;23.30;99.90;;;;;;5060159;28;20373;-75
2023/12/25 10:18:52;;;;;;;5.47;2.28;;;23.20;99.90;;;;;;5048649;28;20450;-74
2023/12/25 10:21:20;;;;;;;11.05;1.70;;;23.20;99.90;;;;;;5056012;28;20094;-75
2023/12/25 10:23:48;;;;;;;8.20;2.25;;;23.40;99.90;;;;;;5056600;28;20104;-75
2023/12/25 10:26:28;;;;;;;11.60;2.40;;;23.60;99.90;;;;;;5056527;28;20094;-75
2023/12/25 10:29:08;;;;;;;5.95;1.70;;;23.50;99.90;;;;;;5061589;28;20014;-75
2023/12/25 10:31:38;;;;;;;7.43;1.98;;;23.40;99.90;;;;;;5054011;28;20009;-75
2023/12/25 10:34:06;;;;;;;7.68;2.30;;;23.30;99.90;;;;;;5055045;28;20056;-75
2023/12/25 10:36:33;;;;;;;6.82;2.60;;;23.30;99.90;;;;;;5058982;28;20048;-75
2023/12/25 10:39:01;;;;;;;8.07;2.50;;;23.30;99.90;;;;;;5055855;28;20036;-74
2023/12/25 10:41:33;;;;;;;8.07;2.28;;;23.20;99.90;;;;;;5057887;28;20017;-74
2023/12/25 10:44:03;;;;;;;8.23;3.20;;;23.40;99.90;;;;;;5056791;28;20021;-75
2023/12/25 10:46:36;;;;;;;7.07;2.58;;;23.30;99.90;;;;;;5033101;28;20048;-75
2023/12/25 10:49:06;;;;;;;7.18;2.78;;;23.40;99.90;;;;;;5045684;28;20462;-74
2023/12/25 10:51:43;;;;;;;6.72;2.72;;;23.30;99.90;;;;;;5048970;28;20671;-76
2023/12/25 10:54:12;;;;;;;9.13;3.25;;;23.30;99.90;;;;;;5052038;28;20944;-78
2023/12/25 10:56:40;;;;;;;7.30;3.28;;;23.30;99.90;;;;;;5054428;28;20484;-76
2023/12/25 10:59:26;;;;;;;9.90;3.40;;;23.30;99.90;;;;;;5054320;28;20026;-77
2023/12/25 11:01:56;;;;;;;7.35;3.40;;;23.30;99.90;;;;;;5060572;28;20101;-77
2023/12/25 11:04:24;;;;;;;6.78;2.65;;;23.50;99.90;;;;;;5055182;28;20045;-76
2023/12/25 11:06:53;;;;;;;7.88;2.92;;;23.40;99.90;;;;;;5054870;28;20028;-77
2023/12/25 11:09:22;;;;;;;4.53;2.35;;;23.30;99.90;;;;;;5052880;28;20048;-75
2023/12/25 11:11:50;;;;;;;6.53;2.45;;;23.40;99.90;;;;;;5034478;28;20495;-76
2023/12/25 11:14:18;;;;;;;6.15;2.50;;;23.40;99.90;;;;;;5052010;28;20064;-77
2023/12/25 11:16:46;;;;;;;11.05;2.75;;;23.30;99.90;;;;;;5051699;28;20028;-76
2023/12/25 11:19:13;;;;;;;9.05;3.22;;;23.30;99.90;;;;;;5052290;28;20028;-77
2023/12/25 11:21:41;;;;;;;12.57;2.90;;;23.30;99.90;;;;;;5045934;28;20156;-76
2023/12/25 11:24:09;;;;;;;11.18;2.80;;;23.30;99.90;;;;;;5040830;28;20033;-76
2023/12/25 11:26:36;;;;;;;6.72;2.40;;;23.30;99.90;;;;;;5029059;28;20032;-76
2023/12/25 11:29:10;;;;;;;6.40;2.20;;;23.20;99.90;;;;;;5040878;28;20090;-76
2023/12/25 11:31:52;;;;;;;7.22;2.10;;;23.20;99.90;;;;;;5025915;28;20033;-76
2023/12/25 11:34:22;;;;;;;5.03;1.70;;;23.20;99.90;;;;;;5046558;28;20037;-76
2023/12/25 11:36:58;;;;;;;8.00;1.70;;;23.20;99.90;;;;;;5044169;28;20576;-76
2023/12/25 11:39:30;;;;;;;6.97;1.85;;;23.20;99.90;;;;;;5030384;28;20037;-75
2023/12/25 11:41:58;;;;;;;6.45;2.17;;;23.20;99.90;;;;;;5046945;28;20035;-76
2023/12/25 11:44:35;;;;;;;4.18;1.55;;;23.10;99.90;;;;;;5043335;28;20067;-74
2023/12/25 11:47:05;;;;;;;5.47;1.73;;;23.10;99.90;;;;;;5040643;28;20546;-74
2023/12/25 11:49:34;;;;;;;6.15;1.42;;;23.10;99.90;;;;;;5042031;28;20040;-75
2023/12/25 11:52:02;;;;;;;7.30;1.60;;;23.20;99.90;;;;;;5042277;28;20041;-75
2023/12/25 11:54:33;;;;;;;7.00;2.10;;;23.20;99.90;;;;;;5051292;28;20021;-75
2023/12/25 11:57:15;;;;;;;6.25;2.25;;;23.10;99.90;;;;;;5046377;28;20474;-75
2023/12/25 11:59:44;;;;;;;8.27;1.20;;;23.30;99.90;;;;;;5050990;28;20120;-75
2023/12/25 12:02:13;;;;;;;4.43;0.50;;;22.90;99.90;;;;;;5054106;28;20036;-75
2023/12/25 12:04:40;;;;;;;2.15;0.60;;;22.70;99.90;;;;;;5047688;28;20405;-75
2023/12/25 12:07:07;;;;;;;1.30;0.40;;;22.50;99.90;;;;;;5040160;28;21440;-74
2023/12/25 12:09:35;;;;;;;4.28;0.80;;;22.20;99.90;;;;;;5039119;28;20482;-75
2023/12/25 12:12:03;;;;;;;2.78;0.75;;;22.00;99.90;;;;;;5044351;28;20075;-75
2023/12/25 12:14:31;;;;;;;1.33;0.68;;;21.70;99.90;;;;;;5048327;28;20048;-74
2023/12/25 12:16:58;;;;;;;1.70;0.40;;;21.60;99.90;;;;;;5045084;28;20040;-75
2023/12/25 12:19:27;;;;;;;3.60;0.85;;;21.60;99.90;;;;;;5046125;28;20085;-75
2023/12/25 12:21:55;;;;;;;2.72;0.70;;;21.40;99.90;;;;;;5049252;28;20145;-75
2023/12/25 12:24:27;;;;;;;1.77;0.75;;;21.30;99.90;;;;;;5053842;28;20017;-75
2023/12/25 12:26:55;;;;;;;3.30;0.63;;;21.20;99.90;;;;;;5052579;28;20056;-75
2023/12/25 12:29:24;;;;;;;1.65;0.57;;;21.00;99.90;;;;;;5050545;28;20106;-75
2023/12/25 12:31:51;;;;;;;1.33;0.68;;;20.90;99.90;;;;;;5049432;28;20032;-75
2023/12/25 12:34:20;;;;;;;2.10;0.68;;;21.00;99.90;;;;;;5050552;28;20060;-75
2023/12/25 12:37:04;;;;;;;2.80;0.82;;;21.20;99.90;;;;;;5049901;28;20056;-75
2023/12/25 12:39:32;;;;;;;1.67;0.70;;;21.10;99.90;;;;;;5050558;28;20184;-75
2023/12/25 12:42:00;;;;;;;2.03;0.65;;;21.00;99.90;;;;;;5048755;28;20060;-75
2023/12/25 12:44:28;;;;;;;3.92;0.70;;;21.00;99.90;;;;;;5053941;28;20020;-76
2023/12/25 12:46:55;;;;;;;2.65;0.50;;;21.00;99.90;;;;;;5048919;28;20078;-75
2023/12/25 12:49:24;;;;;;;1.50;0.40;;;20.80;99.90;;;;;;5049051;28;20024;-75
2023/12/25 12:51:53;;;;;;;3.20;0.65;;;20.70;99.90;;;;;;5054933;28;20032;-74